Time;durP1;ratioP1;P1;durP2;ratioP2;P2;SDS_P1;SDS_P2;PMS_P1;PMS_P2;Temp;Humidity;BMP_temperature;BMP_pressure;BME280_temperature;BME280_humidity;BME280_pressure;Samples;Min_cycle;Max_cycle;Signal;HPM_P1;HPM_P2
2023/04/02 00:00:04;;;;;;;1.92;0.60;;;;;;;7.49;40.73;91557.88;5136323;27;20392;-77
2023/04/02 00:03:09;;;;;;;0.70;0.70;;;;;;;7.58;39.87;91565.81;5136071;27;20039;-77
2023/04/02 00:09:34;;;;;;;0.90;0.80;;;;;;;7.64;39.93;91555.00;5136372;27;20076;-77
2023/04/02 00:12:19;;;;;;;0.70;0.70;;;;;;;7.72;40.17;91558.75;5135324;27;20122;-77
2023/04/02 00:14:57;;;;;;;0.80;0.80;;;;;;;7.74;40.33;91553.25;5135951;27;20063;-77
2023/04/02 00:17:42;;;;;;;0.88;0.77;;;;;;;7.61;41.12;91549.59;5134336;27;20372;-78
2023/04/02 00:20:15;;;;;;;4.25;0.75;;;;;;;7.56;40.64;91553.06;5135845;27;20186;-77
2023/04/02 00:22:52;;;;;;;;;;;;;;;7.45;42.23;91549.91;5117753;27;20035;-77
2023/04/02 00:25:19;;;;;;;0.77;0.77;;;;;;;7.35;43.22;91557.13;5117188;27;19915;-77
2023/04/02 00:27:46;;;;;;;0.70;0.70;;;;;;;7.32;41.57;91550.66;5135689;27;20023;-77
2023/04/02 00:30:13;;;;;;;0.70;0.70;;;;;;;7.10;42.39;91561.72;5117230;27;20524;-78
2023/04/02 00:32:39;;;;;;;1.10;0.60;;;;;;;6.93;43.54;91551.84;5117260;27;20050;-77
2023/04/02 00:35:24;;;;;;;0.50;0.50;;;;;;;6.85;42.17;91550.69;5135773;27;20038;-77
2023/04/02 00:37:50;;;;;;;0.60;0.60;;;;;;;6.80;43.34;91553.38;5101254;27;20101;-76
2023/04/02 00:40:16;;;;;;;0.95;0.60;;;;;;;6.75;44.27;91543.03;5135767;27;20027;-76
2023/04/02 00:42:48;;;;;;;0.50;0.50;;;;;;;6.68;44.58;91551.19;5099999;27;20034;-77
2023/04/02 00:45:29;;;;;;;0.80;0.60;;;;;;;6.61;45.40;91547.41;5136482;27;20039;-78
2023/04/02 00:48:15;;;;;;;2.30;0.70;;;;;;;6.69;43.99;91551.97;5117063;27;20031;-78
2023/04/02 00:50:43;;;;;;;0.52;0.52;;;;;;;6.64;44.15;91550.25;5135982;27;20031;-77
2023/04/02 00:57:03;;;;;;;0.60;0.60;;;;;;;6.91;43.14;91547.97;5135236;27;20049;-77
2023/04/02 00:59:34;;;;;;;0.60;0.60;;;;;;;6.86;43.26;91547.00;5116881;27;20097;-78
2023/04/02 01:02:27;;;;;;;1.05;0.60;;;;;;;6.87;43.83;91563.41;5116575;27;20050;-77
2023/04/02 01:05:25;;;;;;;0.68;0.68;;;;;;;6.84;44.37;91554.31;5135108;27;20077;-77
2023/04/02 01:08:40;;;;;;;0.63;0.63;;;;;;;6.87;43.91;91558.97;5079204;27;20083;-77
2023/04/02 01:11:44;;;;;;;0.95;0.65;;;;;;;6.84;43.87;91556.91;5134757;27;20106;-77
2023/04/02 01:22:06;;;;;;;1.02;0.60;;;;;;;7.14;43.56;91564.50;5094083;28;20035;-78
2023/04/02 01:24:36;;;;;;;0.63;0.60;;;;;;;7.18;43.48;91552.47;5092414;28;20036;-77
2023/04/02 01:27:33;;;;;;;0.70;0.70;;;;;;;7.14;43.75;91560.09;5093063;28;20039;-77
2023/04/02 01:30:10;;;;;;;0.73;0.73;;;;;;;7.24;43.09;91562.50;5092860;28;20399;-77
2023/04/02 01:32:44;;;;;;;0.77;0.60;;;;;;;7.23;43.28;91568.00;5093403;28;20032;-78
2023/04/02 01:35:25;;;;;;;0.52;0.52;;;;;;;7.24;43.13;91565.09;5093337;28;20040;-77
2023/04/02 01:38:32;;;;;;;0.70;0.70;;;;;;;7.34;42.80;91573.78;5093099;28;20032;-77
2023/04/02 01:41:18;;;;;;;0.60;0.60;;;;;;;7.32;43.36;91568.88;5092685;28;20036;-77
2023/04/02 01:44:08;;;;;;;0.68;0.68;;;;;;;7.39;43.76;91590.09;5092544;28;20509;-77
2023/04/02 01:46:41;;;;;;;0.60;0.60;;;;;;;7.37;43.15;91581.03;5093382;28;20032;-77
2023/04/02 01:49:21;;;;;;;0.60;0.60;;;;;;;7.41;43.23;91592.44;5092069;28;20435;-77
2023/04/02 01:51:55;;;;;;;1.02;0.52;;;;;;;7.46;42.62;91585.28;5092480;28;20039;-77
2023/04/02 01:55:02;;;;;;;1.75;0.60;;;;;;;7.39;44.06;91591.94;5092688;28;20077;-77
2023/04/02 01:57:51;;;;;;;0.70;0.70;;;;;;;7.31;43.68;91598.56;5092893;28;20028;-77
2023/04/02 02:00:45;;;;;;;0.60;0.60;;;;;;;7.42;43.35;91588.75;5092970;28;20452;-77
2023/04/02 02:07:09;;;;;;;0.65;0.60;;;;;;;7.30;43.39;91590.00;5094355;28;20035;-77
2023/04/02 02:09:41;;;;;;;0.65;0.65;;;;;;;7.36;43.51;91606.28;5092552;28;20036;-77
2023/04/02 02:12:12;;;;;;;0.60;0.60;;;;;;;7.38;43.29;91598.19;5094281;28;20039;-77
2023/04/02 02:14:38;;;;;;;0.70;0.70;;;;;;;7.38;43.67;91598.19;5092769;28;20162;-77
2023/04/02 02:17:29;;;;;;;0.60;0.52;;;;;;;7.33;43.61;91609.47;5075908;28;20048;-77
2023/04/02 02:19:59;;;;;;;0.68;0.68;;;;;;;7.34;43.02;91607.63;5105029;28;20052;-77
2023/04/02 02:22:50;;;;;;;0.93;0.70;;;;;;;7.30;42.88;91610.81;5113105;28;20042;-77
2023/04/02 02:25:33;;;;;;;0.63;0.60;;;;;;;7.23;43.68;91601.84;5114399;28;20496;-78
2023/04/02 02:28:35;;;;;;;0.60;0.60;;;;;;;7.30;43.36;91610.06;5112763;28;20435;-77
2023/04/02 02:31:32;;;;;;;0.68;0.60;;;;;;;7.20;43.57;91618.78;5112611;28;20044;-77
2023/04/02 02:34:09;;;;;;;0.52;0.52;;;;;;;7.24;43.38;91614.56;5113075;28;20039;-77
2023/04/02 02:37:16;;;;;;;0.73;0.65;;;;;;;7.17;43.40;91614.16;5099269;28;20489;-77
2023/04/02 02:39:56;;;;;;;0.65;0.63;;;;;;;7.21;42.94;91617.75;5019147;28;20029;-77
2023/04/02 02:42:37;;;;;;;0.60;0.60;;;;;;;7.21;42.83;91612.53;5034896;28;20044;-77
2023/04/02 02:45:16;;;;;;;0.70;0.70;;;;;;;7.15;42.92;91613.69;5101928;27;20040;-77
2023/04/02 02:47:45;;;;;;;0.47;0.47;;;;;;;7.11;43.19;91611.94;5115266;28;20027;-78
2023/04/02 02:50:31;;;;;;;0.50;0.50;;;;;;;7.07;43.59;91624.75;5098997;28;20030;-78
2023/04/02 02:53:23;;;;;;;0.60;0.60;;;;;;;7.08;43.20;91621.09;5116219;28;20139;-77
2023/04/02 02:56:06;;;;;;;0.95;0.80;;;;;;;7.09;43.19;91631.22;5099565;28;20081;-77
2023/04/02 02:58:42;;;;;;;0.60;0.60;;;;;;;7.08;43.07;91628.88;5116242;28;20036;-77
2023/04/02 03:01:52;;;;;;;0.70;0.70;;;;;;;7.11;42.77;91630.91;5115742;28;20044;-77
2023/04/02 03:05:03;;;;;;;1.80;1.17;;;;;;;7.11;43.11;91636.13;5116829;28;20043;-77
2023/04/02 03:08:11;;;;;;;0.98;0.80;;;;;;;7.06;43.49;91638.81;5115390;28;20035;-77
2023/04/02 03:11:23;;;;;;;0.50;0.50;;;;;;;7.07;43.05;91642.97;5116606;28;20031;-77
2023/04/02 03:14:48;;;;;;;0.73;0.70;;;;;;;7.02;43.45;91643.03;5001366;28;20052;-77
2023/04/02 03:17:31;;;;;;;0.90;0.60;;;;;;;6.96;43.43;91644.94;4955949;29;20098;-77
2023/04/02 03:20:36;;;;;;;0.50;0.50;;;;;;;7.02;43.14;91638.59;4954993;29;20049;-77
2023/04/02 03:23:37;;;;;;;0.63;0.60;;;;;;;7.07;42.57;91642.97;5022089;28;20041;-77
2023/04/02 03:30:21;;;;;;;;;;;;;;;6.99;42.80;91641.78;5117056;28;20114;-78
2023/04/02 03:33:02;;;;;;;1.13;0.60;;;;;;;7.08;42.52;91644.50;5057440;28;19993;-77
2023/04/02 03:39:29;;;;;;;0.63;0.60;;;;;;;7.14;41.89;91638.16;5117017;28;20594;-77
2023/04/02 03:43:15;;;;;;;0.55;0.55;;;;;;;7.15;41.79;91650.13;5115510;28;20046;-77
2023/04/02 03:45:49;;;;;;;0.70;0.70;;;;;;;7.05;42.28;91651.06;5115416;28;20047;-77
2023/04/02 03:48:54;;;;;;;0.60;0.60;;;;;;;7.05;42.34;91661.47;5114250;28;20141;-78
2023/04/02 03:51:51;;;;;;;0.70;0.70;;;;;;;7.06;41.86;91664.84;5017487;28;20423;-78
2023/04/02 03:55:01;;;;;;;0.68;0.60;;;;;;;7.07;42.49;91655.97;5115246;28;20032;-78
2023/04/02 03:58:11;;;;;;;0.63;0.60;;;;;;;7.07;41.63;91667.16;5115864;28;20031;-78
2023/04/02 04:01:13;;;;;;;0.80;0.80;;;;;;;7.02;42.09;91659.41;5016880;28;20048;-78
2023/04/02 04:03:48;;;;;;;0.50;0.50;;;;;;;6.99;42.24;91669.63;5033879;28;20041;-78
2023/04/02 04:06:28;;;;;;;0.50;0.50;;;;;;;6.99;42.22;91669.63;5109065;28;20078;-78
2023/04/02 04:12:51;;;;;;;0.60;0.60;;;;;;;7.06;41.69;91668.19;5115781;28;20435;-77
2023/04/02 04:23:57;;;;;;;0.50;0.50;;;;;;;7.07;41.71;91677.56;5118127;27;20465;-78
2023/04/02 04:26:38;;;;;;;0.50;0.50;;;;;;;7.06;42.26;91680.44;5137029;27;20054;-78
2023/04/02 04:29:39;;;;;;;0.80;0.80;;;;;;;7.08;41.35;91683.53;5136860;27;20027;-77
2023/04/02 04:32:57;;;;;;;0.65;0.60;;;;;;;6.98;42.09;91691.50;5016372;28;20045;-77
2023/04/02 04:35:58;;;;;;;0.60;0.60;;;;;;;7.05;41.99;91686.72;4999812;28;20045;-77
2023/04/02 04:38:54;;;;;;;0.60;0.55;;;;;;;7.01;41.62;91703.94;5032709;28;20033;-77
2023/04/02 04:41:42;;;;;;;0.68;0.68;;;;;;;7.09;42.09;91693.69;5033047;28;20230;-78
2023/04/02 04:48:56;;;;;;;0.63;0.60;;;;;;;7.19;41.53;91697.19;5135803;27;20042;-77
2023/04/02 04:51:41;;;;;;;0.70;0.70;;;;;;;7.17;41.75;91702.66;5117396;27;20498;-78
2023/04/02 04:54:17;;;;;;;0.40;0.40;;;;;;;7.11;41.54;91709.00;5117925;27;20035;-78
2023/04/02 04:57:02;;;;;;;0.60;0.60;;;;;;;7.25;40.53;91709.03;5117336;27;20438;-78
2023/04/02 04:59:40;;;;;;;;;;;;;;;7.18;41.45;91714.63;5117579;27;20063;-78
2023/04/02 05:02:22;;;;;;;0.60;0.60;;;;;;;7.07;42.00;91718.44;5117067;27;19994;-78
2023/04/02 05:05:23;;;;;;;0.55;0.55;;;;;;;6.99;42.11;91726.88;5135923;27;20441;-78
2023/04/02 05:08:03;;;;;;;0.80;0.70;;;;;;;7.06;41.78;91722.09;5100546;27;20473;-78
2023/04/02 05:10:58;;;;;;;0.68;0.68;;;;;;;7.02;42.36;91737.47;5117170;27;20027;-78
2023/04/02 05:14:09;;;;;;;0.70;0.70;;;;;;;6.93;42.93;91741.00;5117239;27;20035;-78
2023/04/02 05:16:54;;;;;;;0.68;0.68;;;;;;;6.81;43.43;91746.63;5100564;27;20027;-78
2023/04/02 05:19:40;;;;;;;0.60;0.60;;;;;;;6.73;44.06;91750.63;5115877;27;20035;-77
2023/04/02 05:23:17;;;;;;;3.13;0.80;;;;;;;6.67;44.21;91749.16;5076034;28;20028;-77
2023/04/02 05:26:19;;;;;;;0.70;0.70;;;;;;;6.63;44.64;91755.97;5075750;28;20043;-77
2023/04/02 05:28:56;;;;;;;1.05;0.95;;;;;;;6.63;44.70;91761.94;5094363;28;20028;-77
2023/04/02 05:31:41;;;;;;;0.50;0.50;;;;;;;6.71;44.58;91765.75;5093238;28;20040;-77
2023/04/02 05:34:11;;;;;;;0.60;0.60;;;;;;;6.74;43.92;91754.78;5095166;28;20047;-77
2023/04/02 05:37:04;;;;;;;1.15;0.77;;;;;;;6.91;44.18;91767.28;5076187;28;20444;-77
2023/04/02 05:39:53;;;;;;;0.70;0.70;;;;;;;7.08;43.45;91770.19;5093191;28;20033;-78
2023/04/02 05:42:26;;;;;;;1.77;0.90;;;;;;;7.22;41.76;91770.25;5077222;28;20512;-80
2023/04/02 05:45:22;;;;;;;0.63;0.63;;;;;;;7.42;41.78;91779.59;5090395;28;20032;-79
2023/04/02 05:47:52;;;;;;;0.77;0.75;;;;;;;7.55;42.34;91778.13;5078882;28;20038;-80
2023/04/02 05:50:36;;;;;;;0.80;0.75;;;;;;;7.81;40.26;91782.91;5089480;28;20085;-80
2023/04/02 05:53:23;;;;;;;0.63;0.63;;;;;;;7.95;41.66;91783.75;5084794;28;20036;-80
2023/04/02 05:55:58;;;;;;;1.25;0.80;;;;;;;7.92;41.98;91785.09;5091943;28;20047;-80
2023/04/02 05:58:48;;;;;;;0.77;0.77;;;;;;;7.95;42.77;91788.16;5084977;28;20036;-80
2023/04/02 06:01:48;;;;;;;0.55;0.50;;;;;;;8.12;41.49;91783.19;5091863;28;20067;-80
2023/04/02 06:04:30;;;;;;;0.60;0.60;;;;;;;9.36;39.43;91792.78;5085867;28;20505;-80
2023/04/02 06:07:07;;;;;;;0.60;0.60;;;;;;;11.00;35.64;91786.91;5087927;28;20036;-80
2023/04/02 06:09:48;;;;;;;0.60;0.60;;;;;;;12.29;33.91;91784.59;5091057;28;20043;-80
2023/04/02 06:12:51;;;;;;;0.90;0.90;;;;;;;13.30;31.52;91793.75;5098244;28;20028;-79
2023/04/02 06:15:22;;;;;;;0.70;0.70;;;;;;;14.38;30.55;91793.00;5091503;28;20042;-80
2023/04/02 06:18:15;;;;;;;0.60;0.60;;;;;;;15.12;29.84;91787.84;5097482;28;20032;-80
2023/04/02 06:20:48;;;;;;;1.05;0.75;;;;;;;15.96;28.76;91789.88;5129699;27;20078;-79
2023/04/02 06:23:36;;;;;;;2.25;0.73;;;;;;;16.52;26.96;91786.44;5121577;28;20043;-80
2023/04/02 06:26:19;;;;;;;0.60;0.60;;;;;;;17.18;25.41;91791.06;5125057;28;20493;-80
2023/04/02 06:29:11;;;;;;;0.57;0.57;;;;;;;17.64;25.73;91786.00;5123579;28;20043;-82
2023/04/02 06:31:49;;;;;;;0.45;0.45;;;;;;;18.41;26.05;91794.34;5119597;28;20077;-81
2023/04/02 06:34:19;;;;;;;0.50;0.50;;;;;;;18.62;25.36;91801.88;5118349;28;20035;-80
2023/04/02 06:37:02;;;;;;;1.40;0.52;;;;;;;20.02;22.28;91796.84;5115035;28;20035;-79
2023/04/02 06:39:29;;;;;;;0.60;0.50;;;;;;;19.31;23.37;91797.38;5110699;28;20103;-80
2023/04/02 06:42:03;;;;;;;0.45;0.45;;;;;;;19.43;23.45;91792.97;5078023;28;20413;-80
2023/04/02 06:44:57;;;;;;;0.47;0.47;;;;;;;20.22;22.34;91794.00;5117127;28;20043;-79
2023/04/02 06:47:51;;;;;;;0.73;0.45;;;;;;;20.75;21.89;91799.94;5100377;28;20579;-80
2023/04/02 06:50:40;;;;;;;0.50;0.40;;;;;;;21.13;21.46;91810.53;5108324;28;20027;-79
2023/04/02 06:53:18;;;;;;;0.30;0.30;;;;;;;20.61;21.00;91804.34;5105268;28;20445;-80
2023/04/02 06:55:46;;;;;;;0.47;0.40;;;;;;;21.95;21.25;91807.66;5109443;27;20533;-80
2023/04/02 06:58:17;;;;;;;0.77;0.60;;;;;;;21.93;20.45;91815.25;5109353;28;20405;-80
2023/04/02 07:00:45;;;;;;;0.50;0.50;;;;;;;21.98;20.67;91813.03;5095252;28;20024;-80
2023/04/02 07:03:29;;;;;;;0.40;0.40;;;;;;;22.62;20.40;91807.19;5098943;28;20164;-80
2023/04/02 07:05:59;;;;;;;0.65;0.60;;;;;;;22.75;19.63;91820.19;5117589;28;20023;-80
2023/04/02 07:08:26;;;;;;;0.52;0.35;;;;;;;22.60;18.52;91819.38;5114010;28;20169;-80
2023/04/02 07:10:55;;;;;;;0.50;0.50;;;;;;;22.16;20.38;91812.34;5080416;28;20031;-83
2023/04/02 07:13:23;;;;;;;0.50;0.50;;;;;;;22.17;19.96;91816.53;5110316;28;20036;-81
2023/04/02 07:15:53;;;;;;;0.40;0.40;;;;;;;21.73;20.25;91818.22;5112766;28;20023;-82
2023/04/02 07:19:00;;;;;;;0.55;0.43;;;;;;;20.75;20.61;91812.47;5118360;28;20036;-81
2023/04/02 07:22:02;;;;;;;0.63;0.40;;;;;;;19.12;22.53;91818.69;5128806;27;20043;-81
2023/04/02 07:24:46;;;;;;;0.30;0.30;;;;;;;18.86;23.54;91828.09;5103475;27;20093;-81
2023/04/02 07:27:14;;;;;;;0.50;0.50;;;;;;;18.61;23.14;91818.94;5134051;27;20465;-81
2023/04/02 07:29:41;;;;;;;0.40;0.40;;;;;;;18.19;24.95;91830.25;5116891;27;20102;-82
2023/04/02 07:32:34;;;;;;;1.67;1.00;;;;;;;18.38;25.48;91832.91;5135516;27;20123;-84
2023/04/02 07:34:59;;;;;;;0.30;0.30;;;;;;;18.36;24.01;91839.66;5119945;27;20035;-82
2023/04/02 07:37:25;;;;;;;0.20;0.20;;;;;;;17.84;24.64;91839.00;5119281;27;20023;-81
2023/04/02 07:39:51;;;;;;;0.50;0.50;;;;;;;17.98;24.83;91839.31;5103211;27;20375;-81
2023/04/02 07:42:17;;;;;;;0.32;0.32;;;;;;;16.96;25.80;91826.06;5114711;27;20066;-82
2023/04/02 07:44:43;;;;;;;0.45;0.45;;;;;;;17.51;25.88;91834.09;5119442;27;20096;-82
2023/04/02 07:47:09;;;;;;;0.40;0.40;;;;;;;17.54;24.94;91831.56;5098530;28;20040;-81
2023/04/02 07:49:35;;;;;;;1.10;0.60;;;;;;;17.23;25.63;91830.47;5100718;28;20143;-81
2023/04/02 07:52:00;;;;;;;0.40;0.40;;;;;;;17.43;24.67;91826.03;5113714;28;20028;-81
2023/04/02 07:54:26;;;;;;;0.70;0.47;;;;;;;16.72;25.58;91833.00;5075175;28;20032;-80
2023/04/02 07:56:52;;;;;;;0.30;0.30;;;;;;;16.85;26.57;91837.13;5078943;28;20031;-81
2023/04/02 07:59:17;;;;;;;0.30;0.30;;;;;;;17.16;25.57;91832.19;5116982;28;20058;-80
2023/04/02 08:01:44;;;;;;;0.40;0.40;;;;;;;17.32;24.49;91834.81;5082342;28;20027;-81
2023/04/02 08:04:17;;;;;;;0.65;0.60;;;;;;;17.58;25.43;91832.38;5065500;28;20084;-81
2023/04/02 08:06:42;;;;;;;0.65;0.50;;;;;;;17.79;25.08;91847.22;5093976;28;20508;-81
2023/04/02 08:09:09;;;;;;;0.43;0.43;;;;;;;17.60;24.74;91838.09;5097315;28;20051;-80
2023/04/02 08:11:39;;;;;;;0.40;0.40;;;;;;;17.72;24.68;91839.09;5079414;28;20043;-81
2023/04/02 08:14:05;;;;;;;0.43;0.43;;;;;;;17.54;24.46;91844.78;5095214;28;20408;-81
2023/04/02 08:16:46;;;;;;;0.50;0.47;;;;;;;17.53;25.07;91856.47;5100354;28;20039;-81
2023/04/02 08:19:12;;;;;;;0.68;0.43;;;;;;;17.09;25.21;91851.31;5099736;28;20034;-80
2023/04/02 08:21:37;;;;;;;0.40;0.40;;;;;;;17.28;25.79;91855.91;5099686;28;20027;-80
2023/04/02 08:24:03;;;;;;;0.45;0.45;;;;;;;16.79;25.70;91856.19;5100077;28;20036;-80
2023/04/02 08:26:29;;;;;;;0.60;0.60;;;;;;;16.92;25.89;91852.41;5117329;28;20028;-81
2023/04/02 08:28:54;;;;;;;0.68;0.47;;;;;;;17.14;25.92;91858.22;5098540;28;20067;-81
2023/04/02 08:31:22;;;;;;;0.40;0.40;;;;;;;16.77;25.05;91859.16;5079925;28;20024;-80
2023/04/02 08:33:47;;;;;;;0.95;0.40;;;;;;;17.03;25.16;91863.25;5078748;28;20038;-81
2023/04/02 08:36:18;;;;;;;0.50;0.50;;;;;;;17.21;25.15;91868.97;5079614;28;20478;-81
2023/04/02 08:38:45;;;;;;;0.43;0.43;;;;;;;17.00;25.79;91861.25;5097694;28;20118;-81
2023/04/02 08:41:31;;;;;;;0.90;0.50;;;;;;;16.91;26.42;91871.22;5079482;28;20495;-80
2023/04/02 08:43:59;;;;;;;0.50;0.50;;;;;;;16.77;25.10;91861.03;5097755;28;20070;-81
2023/04/02 08:47:12;;;;;;;0.55;0.52;;;;;;;16.87;24.99;91868.50;5097559;28;20050;-81
2023/04/02 08:50:01;;;;;;;0.40;0.40;;;;;;;16.63;24.98;91858.81;5094278;28;20043;-81
2023/04/02 08:52:31;;;;;;;0.40;0.40;;;;;;;16.78;24.05;91860.72;5097507;28;20117;-82
2023/04/02 08:54:59;;;;;;;0.40;0.40;;;;;;;16.57;26.28;91870.72;5097846;28;20032;-81
2023/04/02 08:57:43;;;;;;;0.50;0.50;;;;;;;16.43;24.45;91863.94;5079608;28;20038;-80
2023/04/02 09:00:17;;;;;;;0.52;0.52;;;;;;;16.06;26.77;91879.16;5078055;28;20113;-81
2023/04/02 09:03:07;;;;;;;0.50;0.50;;;;;;;16.10;27.10;91873.97;5095688;28;20051;-80
2023/04/02 09:05:36;;;;;;;0.63;0.52;;;;;;;16.28;27.16;91877.91;5101034;28;20052;-81
2023/04/02 09:08:06;;;;;;;0.43;0.43;;;;;;;15.97;26.28;91878.53;5097681;28;20030;-80
2023/04/02 09:10:44;;;;;;;0.50;0.50;;;;;;;16.41;26.29;91876.75;5098665;28;20442;-80
2023/04/02 09:13:21;;;;;;;0.60;0.60;;;;;;;15.50;27.53;91866.59;5098201;28;20031;-80
2023/04/02 09:15:48;;;;;;;0.98;0.65;;;;;;;15.73;26.89;91874.81;5115764;28;20043;-80
2023/04/02 09:18:15;;;;;;;0.45;0.38;;;;;;;14.94;28.18;91877.66;5095978;28;20028;-82
2023/04/02 09:20:41;;;;;;;0.63;0.63;;;;;;;14.95;26.02;91891.59;5084981;28;20047;-81
2023/04/02 09:23:26;;;;;;;0.60;0.60;;;;;;;14.23;27.18;91875.22;5077897;28;20024;-81
2023/04/02 09:25:53;;;;;;;0.68;0.60;;;;;;;14.38;28.94;91870.13;5096387;28;20154;-83
2023/04/02 09:28:22;;;;;;;0.40;0.40;;;;;;;14.68;27.96;91879.78;5097633;28;20071;-82
2023/04/02 09:31:04;;;;;;;0.50;0.50;;;;;;;14.89;28.56;91874.47;5078434;28;20036;-81
2023/04/02 09:33:48;;;;;;;0.47;0.47;;;;;;;14.83;27.20;91879.16;5097153;28;20557;-81
2023/04/02 09:37:06;;;;;;;0.47;0.47;;;;;;;14.34;28.53;91887.69;5097369;28;20790;-81
2023/04/02 09:39:45;;;;;;;0.52;0.52;;;;;;;14.58;28.35;91875.72;5079050;28;20035;-81
2023/04/02 09:42:43;;;;;;;0.57;0.57;;;;;;;14.64;29.31;91879.69;5079149;28;20397;-81
2023/04/02 09:46:00;;;;;;;0.73;0.52;;;;;;;14.61;27.84;91885.59;5094895;28;20040;-80
2023/04/02 09:48:38;;;;;;;1.33;0.88;;;;;;;14.81;29.02;91885.84;5076001;28;20043;-81
2023/04/02 09:51:21;;;;;;;0.65;0.65;;;;;;;15.33;28.12;91896.59;5076772;28;20032;-81
2023/04/02 09:54:21;;;;;;;0.60;0.60;;;;;;;14.94;28.10;91866.34;5077603;28;20073;-81
2023/04/02 09:57:02;;;;;;;0.35;0.35;;;;;;;15.12;26.99;91886.13;5032718;28;20067;-81
2023/04/02 10:00:11;;;;;;;0.63;0.63;;;;;;;15.56;28.26;91883.72;5075941;28;20462;-80
2023/04/02 10:03:12;;;;;;;0.70;0.70;;;;;;;15.59;28.22;91890.97;5076814;28;20059;-80
2023/04/02 10:05:43;;;;;;;0.75;0.60;;;;;;;15.77;26.92;91901.31;5060501;28;20124;-80
2023/04/02 10:08:25;;;;;;;0.70;0.70;;;;;;;15.04;25.76;91886.22;5087992;28;20039;-77
2023/04/02 10:10:56;;;;;;;1.17;0.83;;;;;;;14.92;27.22;91890.38;5092427;28;20032;-77
2023/04/02 10:13:40;;;;;;;1.08;0.73;;;;;;;15.47;28.61;91887.56;5075911;28;20044;-77
2023/04/02 10:16:48;;;;;;;0.55;0.52;;;;;;;16.11;26.13;91897.41;5079651;28;20039;-75
2023/04/02 10:19:36;;;;;;;1.10;0.70;;;;;;;16.33;26.21;91895.38;5082874;28;20061;-78
2023/04/02 10:22:12;;;;;;;1.23;0.65;;;;;;;16.26;26.92;91895.94;5087347;28;20060;-76
2023/04/02 10:24:38;;;;;;;0.65;0.60;;;;;;;16.30;27.34;91896.81;5091410;28;20058;-77
2023/04/02 10:27:16;;;;;;;0.60;0.60;;;;;;;16.12;28.06;91895.53;5089540;28;20082;-77
2023/04/02 10:30:18;;;;;;;1.40;0.70;;;;;;;15.66;25.33;91906.25;5089443;28;20055;-77
2023/04/02 10:32:59;;;;;;;0.50;0.50;;;;;;;15.53;25.12;91902.06;5081495;28;20032;-77
2023/04/02 10:35:55;;;;;;;0.60;0.60;;;;;;;15.55;26.27;91903.28;5089318;28;20020;-77
2023/04/02 10:38:20;;;;;;;0.60;0.60;;;;;;;15.78;26.47;91900.22;5077382;28;20028;-77
2023/04/02 10:41:02;;;;;;;1.02;0.63;;;;;;;16.37;26.13;91891.72;5086067;28;20061;-77
2023/04/02 10:43:53;;;;;;;0.77;0.63;;;;;;;16.31;26.41;91895.69;5090076;28;20038;-77
2023/04/02 10:46:44;;;;;;;1.02;0.70;;;;;;;15.88;25.34;91891.84;5089290;28;20119;-78
2023/04/02 10:49:31;;;;;;;0.50;0.50;;;;;;;15.65;26.81;91903.94;5070349;28;20029;-77
2023/04/02 10:52:06;;;;;;;0.68;0.68;;;;;;;15.64;26.46;91899.78;5053171;28;20403;-78
2023/04/02 10:54:40;;;;;;;0.57;0.57;;;;;;;16.06;26.25;91896.88;5067359;28;20048;-78
2023/04/02 10:57:46;;;;;;;0.60;0.60;;;;;;;16.22;26.62;91905.63;5074534;28;20410;-78
2023/04/02 11:00:14;;;;;;;0.95;0.65;;;;;;;17.03;26.70;91905.53;5077552;28;20044;-78
2023/04/02 11:03:22;;;;;;;0.47;0.47;;;;;;;17.24;25.60;91908.69;5078312;28;20099;-78
2023/04/02 11:05:57;;;;;;;1.48;0.70;;;;;;;17.22;23.69;91891.63;5078551;28;20040;-78
2023/04/02 11:08:41;;;;;;;1.67;0.88;;;;;;;16.98;23.80;91892.56;5077281;28;20058;-78
2023/04/02 11:11:37;;;;;;;0.60;0.60;;;;;;;17.00;24.96;91892.97;5077489;28;20044;-77
2023/04/02 11:14:23;;;;;;;0.73;0.57;;;;;;;16.74;25.01;91904.78;5077971;28;20029;-78
2023/04/02 11:16:49;;;;;;;0.60;0.60;;;;;;;17.00;24.70;91890.34;5077439;28;20043;-78
2023/04/02 11:19:15;;;;;;;0.75;0.60;;;;;;;16.72;23.89;91896.41;5076276;28;20405;-78
2023/04/02 11:21:54;;;;;;;0.50;0.50;;;;;;;16.79;24.25;91893.97;5078195;28;20091;-78
2023/04/02 11:24:23;;;;;;;0.57;0.50;;;;;;;16.17;25.65;91908.53;5078470;28;20513;-78
2023/04/02 11:26:52;;;;;;;0.47;0.47;;;;;;;16.45;23.25;91906.66;5076909;28;20031;-78
2023/04/02 11:29:28;;;;;;;0.60;0.50;;;;;;;16.80;22.63;91898.16;5078811;28;20551;-78
2023/04/02 11:32:32;;;;;;;0.45;0.45;;;;;;;17.39;24.72;91907.19;5079236;28;20478;-78
2023/04/02 11:35:03;;;;;;;0.50;0.50;;;;;;;17.39;23.14;91906.41;5077716;28;20064;-78
2023/04/02 11:37:47;;;;;;;0.82;0.73;;;;;;;17.50;23.82;91906.66;5078576;28;20033;-78
2023/04/02 11:40:53;;;;;;;0.50;0.50;;;;;;;17.26;26.05;91911.00;5077780;28;20086;-78
2023/04/02 11:43:31;;;;;;;0.70;0.70;;;;;;;16.93;24.48;91908.66;5077880;28;20109;-81
2023/04/02 11:45:58;;;;;;;0.82;0.50;;;;;;;16.72;23.66;91909.63;5078171;28;20056;-76
2023/04/02 11:48:35;;;;;;;1.00;0.52;;;;;;;16.48;24.81;91904.44;5116622;28;20039;-77
2023/04/02 11:51:22;;;;;;;0.32;0.32;;;;;;;16.50;23.20;91910.16;5114918;28;20430;-76
2023/04/02 11:53:57;;;;;;;0.43;0.43;;;;;;;16.32;23.18;91909.66;5116337;28;20492;-77
2023/04/02 11:56:56;;;;;;;0.50;0.50;;;;;;;16.06;24.28;91897.66;5116513;28;20028;-77
2023/04/02 12:00:03;;;;;;;0.50;0.50;;;;;;;15.99;24.93;91898.22;5117440;28;20039;-77
2023/04/02 12:03:04;;;;;;;0.40;0.40;;;;;;;15.99;25.46;91911.41;5115162;28;20382;-76
2023/04/02 12:05:41;;;;;;;0.57;0.55;;;;;;;16.21;25.68;91912.00;5115003;28;20039;-77
2023/04/02 12:08:46;;;;;;;0.40;0.40;;;;;;;16.15;26.61;91905.44;5114631;28;20032;-77
2023/04/02 12:11:14;;;;;;;0.50;0.50;;;;;;;16.26;25.94;91914.44;5116439;28;20050;-77
2023/04/02 12:13:42;;;;;;;1.70;0.60;;;;;;;16.14;24.20;91906.53;5116499;28;20032;-77
2023/04/02 12:16:11;;;;;;;3.10;1.50;;;;;;;16.45;24.01;91905.88;5098089;28;20404;-78
2023/04/02 12:18:53;;;;;;;1.40;1.00;;;;;;;16.94;24.38;91902.28;5116280;28;20023;-77
2023/04/02 12:21:23;;;;;;;0.63;0.60;;;;;;;16.74;22.95;91906.66;5116014;28;20085;-77
2023/04/02 12:23:53;;;;;;;1.02;0.77;;;;;;;16.90;25.00;91904.84;5115829;28;20023;-78
2023/04/02 12:26:36;;;;;;;1.30;0.70;;;;;;;16.52;25.42;91913.25;5115700;28;20032;-77
2023/04/02 12:29:35;;;;;;;2.75;1.20;;;;;;;15.89;27.12;91903.94;5114966;28;20067;-77
2023/04/02 12:32:02;;;;;;;0.70;0.68;;;;;;;15.41;26.25;91910.75;5069626;28;20104;-77
2023/04/02 12:34:45;;;;;;;1.15;0.80;;;;;;;14.92;27.02;91910.69;5097174;28;20027;-77
2023/04/02 12:37:19;;;;;;;;;;;;;;;14.71;27.91;91901.00;5115138;28;20489;-77
2023/04/02 12:39:58;;;;;;;2.53;1.30;;;;;;;14.51;31.21;91909.69;5097410;28;19957;-77
2023/04/02 12:42:33;;;;;;;6.05;1.73;;;;;;;14.88;32.87;91909.81;5097387;28;20115;-78
2023/04/02 12:45:04;;;;;;;2.78;1.40;;;;;;;14.61;34.08;91906.66;5098645;28;20105;-78
2023/04/02 12:47:30;;;;;;;3.35;1.60;;;;;;;14.36;33.26;91911.81;5094166;28;20097;-78
2023/04/02 12:50:14;;;;;;;4.50;1.70;;;;;;;14.04;33.33;91910.66;5095229;28;20040;-79
2023/04/02 12:52:48;;;;;;;6.90;1.77;;;;;;;14.07;35.31;91910.03;5097212;28;20020;-79
2023/04/02 12:55:19;;;;;;;4.15;1.90;;;;;;;14.10;35.52;91908.63;5096001;28;20036;-82
2023/04/02 12:57:48;;;;;;;2.25;1.33;;;;;;;14.25;34.97;91912.50;5098488;28;20024;-82
2023/04/02 13:00:26;;;;;;;1.15;0.88;;;;;;;14.52;30.09;91909.34;5094227;28;20078;-82
2023/04/02 13:03:16;;;;;;;0.75;0.63;;;;;;;14.70;27.50;91909.22;5078194;28;20036;-80
2023/04/02 13:05:56;;;;;;;0.70;0.63;;;;;;;14.47;28.19;91908.78;5060908;28;20115;-82
2023/04/02 13:08:29;;;;;;;1.70;1.13;;;;;;;14.34;29.34;91915.84;5077131;28;20047;-82
2023/04/02 13:11:04;;;;;;;1.15;1.00;;;;;;;14.23;28.93;91907.59;5076994;28;20028;-82
2023/04/02 13:13:39;;;;;;;1.50;1.00;;;;;;;14.27;28.85;91910.34;5077630;28;20033;-83
2023/04/02 13:16:24;;;;;;;3.05;1.10;;;;;;;14.09;29.04;91904.44;5060453;28;20067;-82
2023/04/02 13:18:50;;;;;;;1.77;0.93;;;;;;;14.10;29.72;91904.13;5060285;28;20075;-81
2023/04/02 13:21:18;;;;;;;1.52;1.00;;;;;;;14.21;29.17;91904.50;5060795;28;20040;-81
2023/04/02 13:23:47;;;;;;;0.80;0.80;;;;;;;14.29;28.80;91908.91;5078201;28;20032;-82
2023/04/02 13:26:23;;;;;;;1.02;0.70;;;;;;;14.44;29.01;91904.94;5061112;28;20498;-81
2023/04/02 13:29:02;;;;;;;1.38;0.90;;;;;;;14.37;30.24;91902.06;5059938;28;20044;-83